Time;durP1;ratioP1;P1;durP2;ratioP2;P2;SDS_P1;SDS_P2;PMS_P1;PMS_P2;Temp;Humidity;BMP_temperature;BMP_pressure;BME280_temperature;BME280_humidity;BME280_pressure;Samples;Min_cycle;Max_cycle;Signal;HPM_P1;HPM_P2
2023/10/18 00:02:49;;;;;;;0.30;0.20;;;4.20;99.90;;;;;;5031753;28;20201;-79
2023/10/18 00:05:17;;;;;;;3.50;3.30;;;4.20;99.90;;;;;;5034236;28;20389;-77
2023/10/18 00:07:43;;;;;;;0.40;0.30;;;4.20;99.90;;;;;;5053417;28;20837;-82
2023/10/18 00:10:09;;;;;;;0.30;0.20;;;4.20;99.90;;;;;;5032545;28;20239;-82
2023/10/18 00:12:34;;;;;;;0.30;0.20;;;4.10;99.90;;;;;;5031060;28;20238;-84
2023/10/18 00:15:01;;;;;;;0.40;0.30;;;4.20;99.90;;;;;;5032864;28;20188;-82
2023/10/18 00:17:27;;;;;;;0.30;0.25;;;4.10;99.90;;;;;;5032316;28;20216;-79
2023/10/18 00:19:52;;;;;;;1.60;1.07;;;4.10;99.90;;;;;;5051834;28;20181;-83
2023/10/18 00:22:18;;;;;;;0.30;0.20;;;4.10;99.90;;;;;;5028158;28;20455;-81
2023/10/18 00:24:43;;;;;;;1.37;0.90;;;4.10;99.90;;;;;;5054272;28;20196;-81
2023/10/18 00:27:09;;;;;;;0.40;0.30;;;4.10;99.90;;;;;;5035768;28;20217;-80
2023/10/18 00:29:36;;;;;;;0.30;0.30;;;4.00;99.90;;;;;;5031966;28;20285;-82
2023/10/18 00:32:03;;;;;;;0.40;0.30;;;4.00;99.90;;;;;;5036283;28;20300;-80
2023/10/18 00:34:29;;;;;;;0.47;0.47;;;4.00;99.90;;;;;;5045096;28;20182;-82
2023/10/18 00:36:55;;;;;;;0.40;0.37;;;3.90;99.90;;;;;;5031858;28;22286;-85
2023/10/18 00:39:27;;;;;;;0.40;0.30;;;3.90;99.90;;;;;;5035050;28;20687;-83
2023/10/18 00:41:54;;;;;;;0.40;0.20;;;3.90;99.90;;;;;;5032377;28;20235;-80
2023/10/18 00:44:21;;;;;;;1.27;0.65;;;3.70;99.90;;;;;;5032703;28;20186;-80
2023/10/18 00:46:55;;;;;;;0.30;0.30;;;3.90;99.90;;;;;;5026290;28;20209;-82
2023/10/18 00:49:21;;;;;;;0.40;0.30;;;4.00;99.90;;;;;;5030777;28;20191;-84
2023/10/18 00:51:49;;;;;;;0.40;0.30;;;3.90;99.90;;;;;;5028741;28;20205;-78
2023/10/18 00:54:14;;;;;;;0.30;0.20;;;3.90;99.90;;;;;;5026156;28;20596;-82
2023/10/18 00:56:43;;;;;;;0.40;0.30;;;3.90;99.90;;;;;;5037680;28;20675;-80
2023/10/18 00:59:21;;;;;;;0.93;0.93;;;3.90;99.90;;;;;;5033992;28;20185;-81
2023/10/18 01:01:47;;;;;;;0.30;0.20;;;4.00;99.90;;;;;;5034730;28;20185;-81
2023/10/18 01:04:12;;;;;;;0.45;0.30;;;3.90;99.90;;;;;;5032007;28;20212;-77
2023/10/18 01:06:43;;;;;;;0.30;0.30;;;4.10;99.90;;;;;;5036263;28;20205;-85
2023/10/18 01:09:15;;;;;;;0.30;0.30;;;3.80;99.90;;;;;;5031662;28;20208;-81
2023/10/18 01:11:41;;;;;;;0.30;0.30;;;3.80;99.90;;;;;;5030095;28;20197;-81
2023/10/18 01:14:07;;;;;;;0.30;0.30;;;3.80;99.90;;;;;;5040410;28;20180;-81
2023/10/18 01:16:36;;;;;;;3.23;1.90;;;3.80;99.90;;;;;;5041331;28;20198;-81
2023/10/18 01:19:06;;;;;;;1.15;1.10;;;3.90;99.90;;;;;;5034677;28;20440;-81
2023/10/18 01:21:32;;;;;;;0.50;0.50;;;4.00;99.90;;;;;;5025796;28;20268;-82
2023/10/18 01:23:59;;;;;;;0.60;0.57;;;4.10;99.90;;;;;;5030962;28;20186;-78
2023/10/18 01:26:27;;;;;;;0.60;0.60;;;4.10;99.90;;;;;;5040033;28;20189;-78
2023/10/18 01:28:54;;;;;;;0.30;0.30;;;4.10;99.90;;;;;;5028400;28;20214;-78
2023/10/18 01:31:21;;;;;;;0.30;0.30;;;4.10;99.90;;;;;;5050685;28;20197;-79
2023/10/18 01:33:47;;;;;;;0.55;0.55;;;4.20;99.90;;;;;;5032916;28;22259;-80
2023/10/18 01:36:15;;;;;;;0.32;0.25;;;4.20;99.90;;;;;;5034603;28;20194;-78
2023/10/18 01:39:01;;;;;;;1.45;1.20;;;4.20;99.90;;;;;;5034743;28;20707;-83
2023/10/18 01:41:28;;;;;;;0.82;0.60;;;4.10;99.90;;;;;;5029446;28;20204;-80
2023/10/18 01:43:56;;;;;;;0.30;0.30;;;4.10;99.90;;;;;;5033391;28;20178;-83
2023/10/18 01:46:23;;;;;;;0.30;0.30;;;4.20;99.90;;;;;;5028094;28;20194;-79
2023/10/18 01:48:52;;;;;;;0.35;0.30;;;4.20;99.90;;;;;;5033732;28;20197;-84
2023/10/18 01:51:19;;;;;;;0.68;0.55;;;4.20;99.90;;;;;;5031423;28;20219;-83
2023/10/18 01:53:44;;;;;;;2.70;2.60;;;4.20;99.90;;;;;;5035884;28;20185;-81
2023/10/18 01:56:10;;;;;;;0.30;0.27;;;4.20;99.90;;;;;;5036801;28;20192;-82
2023/10/18 01:58:37;;;;;;;0.63;0.60;;;4.20;99.90;;;;;;5031094;28;20224;-79
2023/10/18 02:01:08;;;;;;;1.33;1.23;;;4.20;99.90;;;;;;5043363;28;20344;-80
2023/10/18 02:03:34;;;;;;;3.45;1.50;;;4.10;99.90;;;;;;5025367;28;20288;-80
2023/10/18 02:06:06;;;;;;;0.30;0.30;;;4.00;99.90;;;;;;5032667;28;20256;-82
2023/10/18 02:08:35;;;;;;;0.30;0.20;;;4.10;99.90;;;;;;5022306;28;20209;-81
2023/10/18 02:11:05;;;;;;;0.55;0.55;;;4.00;99.90;;;;;;5031790;28;20185;-83
2023/10/18 02:13:31;;;;;;;0.35;0.30;;;4.10;99.90;;;;;;5022686;28;20182;-81
2023/10/18 02:15:57;;;;;;;1.17;1.07;;;4.00;99.90;;;;;;5029233;28;21223;-81
2023/10/18 02:18:23;;;;;;;0.38;0.30;;;3.70;99.90;;;;;;5026730;28;20256;-80
2023/10/18 02:20:52;;;;;;;0.30;0.20;;;3.90;99.90;;;;;;5041888;28;20556;-77
2023/10/18 02:23:18;;;;;;;0.40;0.40;;;3.70;99.90;;;;;;5037223;28;20216;-83
2023/10/18 02:25:44;;;;;;;0.40;0.30;;;3.60;99.90;;;;;;5048394;28;20200;-80
2023/10/18 02:28:23;;;;;;;1.10;1.10;;;3.60;99.90;;;;;;5029443;28;20213;-83
2023/10/18 02:33:44;;;;;;;0.47;0.47;;;3.70;99.90;;;;;;5035454;28;20190;-81
2023/10/18 02:36:11;;;;;;;0.93;0.93;;;3.50;99.90;;;;;;5029087;28;20212;-82
2023/10/18 02:38:43;;;;;;;1.45;1.38;;;3.30;99.90;;;;;;5043695;28;20786;-83
2023/10/18 02:41:21;;;;;;;2.05;1.90;;;3.20;99.90;;;;;;5047664;28;20258;-80
2023/10/18 02:43:50;;;;;;;0.43;0.43;;;3.10;99.90;;;;;;5026733;28;20189;-83
2023/10/18 02:46:20;;;;;;;0.38;0.30;;;3.30;99.90;;;;;;5024997;28;20186;-78
2023/10/18 02:48:51;;;;;;;0.30;0.30;;;3.20;99.90;;;;;;5032427;28;20253;-80
2023/10/18 02:51:22;;;;;;;0.40;0.30;;;3.40;99.90;;;;;;5031144;28;20280;-81
2023/10/18 02:53:48;;;;;;;0.30;0.20;;;3.40;99.90;;;;;;5029921;28;20194;-80
2023/10/18 02:56:17;;;;;;;0.68;0.68;;;3.60;99.90;;;;;;5043794;28;20178;-77
2023/10/18 02:58:46;;;;;;;0.30;0.30;;;3.50;99.90;;;;;;5032285;28;20210;-78
2023/10/18 03:01:14;;;;;;;0.30;0.30;;;3.60;99.90;;;;;;5031388;28;21235;-80
2023/10/18 03:03:40;;;;;;;0.30;0.20;;;3.60;99.90;;;;;;5030636;28;20186;-82
2023/10/18 03:06:12;;;;;;;0.93;0.93;;;3.60;99.90;;;;;;5027484;28;20221;-79
2023/10/18 03:08:42;;;;;;;0.40;0.35;;;3.70;99.90;;;;;;5025869;28;20189;-82
2023/10/18 03:11:11;;;;;;;0.40;0.30;;;3.80;99.90;;;;;;5040775;28;20177;-82
2023/10/18 03:13:37;;;;;;;1.25;0.68;;;3.90;99.90;;;;;;5023359;28;20239;-82
2023/10/18 03:16:15;;;;;;;0.73;0.73;;;3.80;99.90;;;;;;5027248;28;20659;-80
2023/10/18 03:18:43;;;;;;;0.35;0.30;;;3.90;99.90;;;;;;5027208;28;20256;-76
2023/10/18 03:21:13;;;;;;;0.40;0.30;;;3.70;99.90;;;;;;5030175;28;20268;-80
2023/10/18 03:23:51;;;;;;;0.30;0.20;;;3.50;99.90;;;;;;5022970;28;20178;-81
2023/10/18 03:26:33;;;;;;;1.95;1.85;;;3.60;99.90;;;;;;5031012;28;20224;-79
2023/10/18 03:29:02;;;;;;;0.50;0.50;;;3.50;99.90;;;;;;5032096;28;20192;-82
2023/10/18 03:31:28;;;;;;;0.80;0.50;;;3.60;99.90;;;;;;5030716;28;20180;-82
2023/10/18 03:34:01;;;;;;;0.30;0.30;;;3.70;99.90;;;;;;5044404;28;20190;-78
2023/10/18 03:36:34;;;;;;;0.30;0.30;;;3.80;99.90;;;;;;5037887;28;20181;-82
2023/10/18 03:39:13;;;;;;;0.30;0.30;;;3.80;99.90;;;;;;5037704;28;20205;-78
2023/10/18 03:41:42;;;;;;;0.30;0.30;;;3.80;99.90;;;;;;5036831;28;20208;-83
2023/10/18 03:44:09;;;;;;;0.30;0.30;;;3.50;99.90;;;;;;5032557;28;20564;-81
2023/10/18 03:46:38;;;;;;;0.30;0.30;;;3.90;99.90;;;;;;5022598;28;20220;-81
2023/10/18 03:49:16;;;;;;;0.55;0.38;;;3.70;99.90;;;;;;5023812;28;20217;-82
2023/10/18 03:51:42;;;;;;;0.50;0.43;;;4.00;99.90;;;;;;5026645;28;20208;-83
2023/10/18 03:54:14;;;;;;;0.50;0.50;;;3.90;99.90;;;;;;5030368;28;20173;-81
2023/10/18 03:56:42;;;;;;;2.38;2.28;;;4.00;99.90;;;;;;5031246;28;20664;-82
2023/10/18 03:59:20;;;;;;;0.30;0.30;;;3.90;99.90;;;;;;5033800;28;20188;-83
2023/10/18 04:04:37;;;;;;;0.30;0.30;;;3.90;99.90;;;;;;5031120;28;20215;-79
2023/10/18 04:07:13;;;;;;;0.40;0.40;;;3.80;99.90;;;;;;5024531;28;20205;-85
2023/10/18 04:10:11;;;;;;;0.30;0.20;;;3.70;99.90;;;;;;5044273;28;20193;-80
2023/10/18 04:12:37;;;;;;;0.30;0.30;;;3.70;99.90;;;;;;5035882;28;20198;-82
2023/10/18 04:15:22;;;;;;;0.40;0.32;;;3.70;99.90;;;;;;5047279;28;20180;-77
2023/10/18 04:18:03;;;;;;;0.30;0.30;;;3.70;99.90;;;;;;5039675;28;20197;-80
2023/10/18 04:20:34;;;;;;;0.40;0.30;;;3.80;99.90;;;;;;5039808;28;20193;-79
2023/10/18 04:23:02;;;;;;;0.65;0.65;;;3.80;99.90;;;;;;5025910;28;20186;-79
2023/10/18 04:25:31;;;;;;;0.30;0.30;;;3.70;99.90;;;;;;5022912;28;20257;-82
2023/10/18 04:27:58;;;;;;;3.20;1.40;;;3.70;99.90;;;;;;5044640;28;20212;-79
2023/10/18 04:30:24;;;;;;;0.40;0.40;;;3.60;99.90;;;;;;5025718;28;20187;-82
2023/10/18 04:33:15;;;;;;;0.50;0.50;;;3.60;99.90;;;;;;5036499;28;20208;-79
2023/10/18 04:35:46;;;;;;;0.77;0.77;;;3.60;99.90;;;;;;5028945;28;20739;-83
2023/10/18 04:38:22;;;;;;;0.30;0.30;;;3.50;99.90;;;;;;5029398;28;20267;-80
2023/10/18 04:43:32;;;;;;;2.75;1.88;;;3.50;99.90;;;;;;5026713;28;20694;-78
2023/10/18 04:45:59;;;;;;;0.40;0.40;;;3.50;99.90;;;;;;5025728;28;20189;-81
2023/10/18 04:48:59;;;;;;;1.15;1.15;;;6.30;99.90;;;;;;5036312;28;20276;-81
2023/10/18 04:51:33;;;;;;;0.40;0.30;;;3.50;99.90;;;;;;5033913;28;20212;-79
2023/10/18 04:54:17;;;;;;;0.50;0.40;;;3.50;99.90;;;;;;5027421;28;20291;-80
2023/10/18 04:56:44;;;;;;;0.30;0.30;;;3.50;99.90;;;;;;5018259;28;20202;-82
2023/10/18 04:59:26;;;;;;;0.80;0.73;;;3.50;99.90;;;;;;5023666;28;20277;-82
2023/10/18 05:04:21;;;;;;;0.50;0.50;;;3.50;99.90;;;;;;5028323;28;20181;-79
2023/10/18 05:06:54;;;;;;;0.30;0.30;;;3.40;99.90;;;;;;5028346;28;20213;-83
2023/10/18 05:09:31;;;;;;;0.40;0.30;;;3.50;99.90;;;;;;5026081;28;20677;-77
2023/10/18 05:12:07;;;;;;;0.98;0.68;;;3.50;99.90;;;;;;5033280;28;20211;-82
2023/10/18 05:14:50;;;;;;;0.40;0.30;;;3.50;99.90;;;;;;5028243;28;20173;-81
2023/10/18 05:18:04;;;;;;;0.30;0.25;;;3.50;99.90;;;;;;5043141;28;20278;-83
2023/10/18 05:20:21;;;;;;;0.30;0.30;;;3.40;99.90;;;;;;5023700;28;20193;-78
2023/10/18 05:22:49;;;;;;;0.40;0.30;;;3.50;99.90;;;;;;5038394;28;20280;-85
2023/10/18 05:27:46;;;;;;;0.30;0.20;;;3.20;99.90;;;;;;5041608;28;21192;-79
2023/10/18 05:30:16;;;;;;;1.50;1.15;;;3.30;99.90;;;;;;5028559;28;20186;-80
2023/10/18 05:35:35;;;;;;;0.47;0.47;;;3.40;99.90;;;;;;5034080;28;20177;-82
2023/10/18 05:43:12;;;;;;;0.60;0.50;;;3.30;99.90;;;;;;5048622;28;20195;-82
2023/10/18 05:45:41;;;;;;;0.65;0.65;;;3.10;99.90;;;;;;5040110;28;20186;-81
2023/10/18 05:48:16;;;;;;;0.30;0.30;;;3.10;99.90;;;;;;5035412;28;20209;-83
2023/10/18 05:50:49;;;;;;;0.70;0.70;;;3.20;99.90;;;;;;5047827;28;20199;-82
2023/10/18 05:53:18;;;;;;;0.40;0.30;;;3.10;99.90;;;;;;5027190;28;20202;-80
2023/10/18 05:55:52;;;;;;;0.30;0.30;;;2.90;99.90;;;;;;5036939;28;20193;-78
2023/10/18 05:58:25;;;;;;;0.30;0.30;;;2.90;99.90;;;;;;5041952;28;20210;-81
2023/10/18 06:00:52;;;;;;;1.02;0.98;;;2.40;99.90;;;;;;5023147;28;20220;-81
2023/10/18 06:03:19;;;;;;;0.47;0.47;;;2.70;99.90;;;;;;5054369;28;20184;-82
2023/10/18 06:05:45;;;;;;;0.30;0.20;;;2.80;99.90;;;;;;5050715;28;20757;-82
2023/10/18 06:08:13;;;;;;;1.43;1.23;;;2.80;99.90;;;;;;5029939;28;20201;-83
2023/10/18 06:10:38;;;;;;;0.45;0.45;;;2.90;99.90;;;;;;5031400;28;20186;-77
2023/10/18 06:13:09;;;;;;;0.80;0.80;;;3.00;99.90;;;;;;5041711;28;20227;-83
2023/10/18 06:15:38;;;;;;;0.50;0.50;;;3.20;99.90;;;;;;5040210;28;20189;-79
2023/10/18 06:18:06;;;;;;;0.63;0.63;;;3.40;99.90;;;;;;5037523;28;20205;-79
2023/10/18 06:20:37;;;;;;;0.50;0.50;;;3.40;99.90;;;;;;5035757;28;20173;-80
2023/10/18 06:25:49;;;;;;;0.73;0.73;;;3.60;99.90;;;;;;5030497;28;20573;-80
2023/10/18 06:28:20;;;;;;;0.40;0.30;;;3.50;99.90;;;;;;5026150;28;20223;-80
2023/10/18 06:30:50;;;;;;;0.30;0.30;;;3.50;99.90;;;;;;5026601;28;20185;-79
2023/10/18 06:33:18;;;;;;;0.30;0.20;;;3.70;99.90;;;;;;5037569;28;20288;-82
2023/10/18 06:36:11;;;;;;;0.40;0.30;;;4.00;99.90;;;;;;5037851;28;20706;-80
2023/10/18 06:38:33;;;;;;;0.95;0.75;;;4.20;99.90;;;;;;5036601;28;21300;-80
2023/10/18 06:43:25;;;;;;;1.63;1.53;;;4.70;99.90;;;;;;5034190;28;20193;-84
2023/10/18 06:45:53;;;;;;;0.30;0.20;;;5.10;99.90;;;;;;5025199;28;20212;-83
2023/10/18 06:48:19;;;;;;;0.40;0.40;;;5.40;99.90;;;;;;5045164;28;20717;-84
2023/10/18 06:50:48;;;;;;;0.85;0.85;;;5.70;99.90;;;;;;5039989;28;20184;-80
2023/10/18 06:53:15;;;;;;;0.30;0.30;;;6.00;99.90;;;;;;5047955;28;20213;-83
2023/10/18 06:55:43;;;;;;;2.05;1.65;;;6.20;99.90;;;;;;5053825;28;20613;-85
2023/10/18 06:58:14;;;;;;;1.50;0.95;;;6.50;99.90;;;;;;5035384;28;20189;-81
2023/10/18 07:00:43;;;;;;;1.45;1.38;;;6.80;99.90;;;;;;5049612;28;20194;-80
2023/10/18 07:03:24;;;;;;;0.65;0.65;;;7.10;99.90;;;;;;5031257;28;20236;-81
2023/10/18 07:05:52;;;;;;;0.40;0.40;;;7.40;99.90;;;;;;5043325;28;20197;-85
2023/10/18 07:08:34;;;;;;;0.40;0.30;;;7.90;99.90;;;;;;5051933;28;20262;-84
2023/10/18 07:11:01;;;;;;;0.50;0.40;;;8.50;99.90;;;;;;5037184;28;20625;-83
2023/10/18 07:13:33;;;;;;;3.45;1.05;;;9.00;99.90;;;;;;5039338;28;20205;-81
2023/10/18 07:16:11;;;;;;;1.00;1.00;;;9.50;99.90;;;;;;5050240;28;20190;-82
2023/10/18 07:18:38;;;;;;;0.30;0.20;;;10.10;99.90;;;;;;5034509;28;20213;-80
2023/10/18 07:21:07;;;;;;;0.60;0.60;;;10.20;99.90;;;;;;5033803;28;20182;-84
2023/10/18 07:23:36;;;;;;;1.02;0.93;;;10.20;99.90;;;;;;5031126;28;20182;-86
2023/10/18 07:26:03;;;;;;;0.40;0.20;;;9.70;99.90;;;;;;5034431;28;20190;-83
2023/10/18 07:28:29;;;;;;;6.05;2.60;;;9.40;99.90;;;;;;5039707;28;20251;-84
2023/10/18 07:30:55;;;;;;;0.82;0.82;;;9.30;99.90;;;;;;5039474;28;20194;-86
2023/10/18 07:33:23;;;;;;;0.40;0.30;;;9.20;99.90;;;;;;5036474;28;20205;-86
2023/10/18 07:35:49;;;;;;;0.50;0.30;;;9.10;99.90;;;;;;5035247;28;20240;-84
2023/10/18 07:38:25;;;;;;;2.35;2.15;;;9.00;99.90;;;;;;5032246;28;20231;-84
2023/10/18 07:40:59;;;;;;;0.90;0.90;;;8.70;99.90;;;;;;5050615;28;20208;-84
2023/10/18 07:43:26;;;;;;;0.80;0.80;;;8.10;99.90;;;;;;5046808;28;20303;-84
2023/10/18 07:45:53;;;;;;;1.00;1.00;;;8.00;99.90;;;;;;5032545;28;20185;-82
2023/10/18 07:48:19;;;;;;;1.15;1.15;;;7.80;99.90;;;;;;5038196;28;20209;-85
2023/10/18 07:50:50;;;;;;;0.30;0.20;;;7.80;99.90;;;;;;5034349;28;20262;-81
2023/10/18 07:53:20;;;;;;;0.93;0.93;;;7.60;99.90;;;;;;5039532;28;20209;-82
2023/10/18 07:55:53;;;;;;;0.38;0.20;;;7.30;99.90;;;;;;5053273;28;20193;-84
2023/10/18 07:58:22;;;;;;;1.70;1.60;;;7.00;99.90;;;;;;5060516;28;20206;-86
2023/10/18 08:03:30;;;;;;;1.83;1.73;;;7.10;99.90;;;;;;5032293;28;20652;-84
2023/10/18 08:05:56;;;;;;;4.10;1.75;;;7.20;99.90;;;;;;5030302;28;20203;-84
2023/10/18 08:08:25;;;;;;;1.30;1.20;;;7.60;99.90;;;;;;5039995;28;20208;-83
2023/10/18 08:10:55;;;;;;;0.57;0.57;;;8.00;99.90;;;;;;5037904;28;20193;-85
2023/10/18 08:13:26;;;;;;;2.05;0.77;;;8.20;99.90;;;;;;5053639;28;20213;-84
2023/10/18 08:15:56;;;;;;;0.40;0.30;;;8.50;99.90;;;;;;5041843;28;20193;-83
2023/10/18 08:18:39;;;;;;;2.10;1.95;;;8.90;99.90;;;;;;5033931;28;20312;-85
2023/10/18 08:21:08;;;;;;;2.25;2.08;;;9.50;99.90;;;;;;5027775;28;20197;-84
2023/10/18 08:23:35;;;;;;;0.73;0.73;;;10.00;99.90;;;;;;5029910;28;20189;-85
2023/10/18 08:26:03;;;;;;;3.08;2.88;;;10.20;99.90;;;;;;5038838;28;20205;-84
2023/10/18 08:28:40;;;;;;;0.73;0.73;;;10.70;99.90;;;;;;5040057;28;20286;-82
2023/10/18 08:31:17;;;;;;;3.15;1.95;;;10.90;99.90;;;;;;5049544;28;20195;-84
2023/10/18 08:33:43;;;;;;;0.73;0.73;;;11.10;99.90;;;;;;5036700;28;20228;-83
2023/10/18 08:36:13;;;;;;;1.15;1.05;;;13.50;99.90;;;;;;5053052;28;20197;-80
2023/10/18 08:38:41;;;;;;;1.10;1.10;;;11.40;99.90;;;;;;5037806;28;20219;-83
2023/10/18 08:41:16;;;;;;;9.38;3.10;;;11.90;99.90;;;;;;5045026;28;20610;-81
2023/10/18 08:44:16;;;;;;;1.08;1.02;;;12.60;99.90;;;;;;5035567;28;20658;-84
2023/10/18 08:47:04;;;;;;;1.73;1.63;;;13.70;99.90;;;;;;5054859;28;20209;-85
2023/10/18 08:49:33;;;;;;;0.88;0.88;;;14.40;99.90;;;;;;5030814;28;20228;-83
2023/10/18 08:52:08;;;;;;;0.50;0.47;;;15.80;99.90;;;;;;5053613;28;20223;-86
2023/10/18 08:54:39;;;;;;;1.00;0.63;;;14.50;99.90;;;;;;5052156;28;20440;-86
2023/10/18 08:57:08;;;;;;;0.87;0.87;;;14.40;99.90;;;;;;5031943;28;20467;-83
2023/10/18 08:59:42;;;;;;;2.20;2.10;;;15.00;99.90;;;;;;5029763;28;20461;-84
2023/10/18 09:02:23;;;;;;;1.53;0.40;;;16.20;99.90;;;;;;5047417;28;20450;-84
2023/10/18 09:04:55;;;;;;;1.00;0.90;;;16.80;99.90;;;;;;5056421;28;20534;-86
2023/10/18 09:10:06;;;;;;;1.70;1.57;;;18.20;99.90;;;;;;5040887;28;20454;-83
2023/10/18 09:18:03;;;;;;;6.70;2.37;;;16.00;99.90;;;;;;5035961;28;20850;-83
2023/10/18 09:20:29;;;;;;;1.40;1.03;;;15.70;99.90;;;;;;5047192;28;20436;-85
2023/10/18 09:23:03;;;;;;;1.00;0.97;;;15.20;99.90;;;;;;5048848;28;20927;-85
2023/10/18 09:25:47;;;;;;;0.50;0.40;;;14.70;99.90;;;;;;5034114;28;21296;-84
2023/10/18 09:28:14;;;;;;;0.90;0.73;;;14.60;99.90;;;;;;5050506;28;20475;-84
2023/10/18 09:30:39;;;;;;;3.00;1.00;;;14.70;99.90;;;;;;5055570;28;20471;-84
2023/10/18 09:33:05;;;;;;;1.40;1.33;;;;;;;;;;5040581;28;20472;-82
2023/10/18 09:35:31;;;;;;;0.75;0.73;;;13.70;99.90;;;;;;5055720;28;20219;-84
2023/10/18 09:38:03;;;;;;;0.70;0.70;;;13.70;99.90;;;;;;5031430;28;20265;-84
2023/10/18 09:40:29;;;;;;;1.17;1.00;;;13.60;99.90;;;;;;5032914;28;20181;-83
2023/10/18 09:42:55;;;;;;;1.13;1.03;;;13.20;99.90;;;;;;5042030;28;20180;-85
2023/10/18 09:45:20;;;;;;;0.73;0.73;;;13.00;99.90;;;;;;5039328;28;20444;-83
2023/10/18 09:47:48;;;;;;;0.40;0.30;;;12.90;99.90;;;;;;5031780;28;20607;-85
2023/10/18 09:50:23;;;;;;;3.70;0.93;;;13.40;99.90;;;;;;5042904;28;20253;-81
2023/10/18 09:52:56;;;;;;;1.33;1.25;;;12.30;99.90;;;;;;5045218;28;20307;-85
2023/10/18 09:55:27;;;;;;;1.40;1.30;;;12.30;99.90;;;;;;5036645;28;20188;-85
2023/10/18 09:58:14;;;;;;;1.25;1.15;;;12.10;99.90;;;;;;5034228;28;20216;-85
2023/10/18 10:00:42;;;;;;;0.85;0.85;;;12.00;99.90;;;;;;5037240;28;20174;-83
2023/10/18 10:03:12;;;;;;;0.40;0.30;;;12.30;99.90;;;;;;5039136;28;20276;-84
2023/10/18 10:05:41;;;;;;;1.60;1.05;;;12.40;99.90;;;;;;5039228;28;20210;-84
2023/10/18 10:08:08;;;;;;;1.33;1.23;;;12.60;99.90;;;;;;5039760;28;20209;-82
2023/10/18 10:10:44;;;;;;;0.85;0.77;;;12.70;99.90;;;;;;5042186;28;20198;-80
2023/10/18 10:13:25;;;;;;;0.70;0.70;;;12.70;99.90;;;;;;5056028;28;20256;-82
2023/10/18 10:16:09;;;;;;;1.60;1.33;;;12.50;99.90;;;;;;5032609;28;20174;-85
2023/10/18 10:18:38;;;;;;;2.53;2.35;;;12.50;99.90;;;;;;5031924;28;20213;-85
2023/10/18 10:21:07;;;;;;;0.70;0.70;;;12.50;99.90;;;;;;5050933;28;20181;-86
2023/10/18 10:23:35;;;;;;;1.75;1.65;;;12.40;99.90;;;;;;5030975;28;20659;-83
2023/10/18 10:26:12;;;;;;;0.73;0.68;;;12.30;99.90;;;;;;5052553;28;20208;-84
2023/10/18 10:31:55;;;;;;;0.90;0.90;;;12.80;99.90;;;;;;5034607;28;20178;-83
2023/10/18 10:34:32;;;;;;;0.55;0.45;;;13.00;99.90;;;;;;5031695;28;20190;-84
2023/10/18 10:37:07;;;;;;;0.50;0.47;;;13.10;99.90;;;;;;5029768;28;20209;-84
2023/10/18 10:39:36;;;;;;;1.27;0.97;;;13.30;99.90;;;;;;5043646;28;20235;-84
2023/10/18 10:42:19;;;;;;;0.40;0.35;;;13.30;99.90;;;;;;5056109;28;20467;-86
2023/10/18 10:45:10;;;;;;;1.77;1.67;;;13.10;99.90;;;;;;5051101;28;20181;-84
2023/10/18 10:47:42;;;;;;;3.17;1.17;;;12.90;99.90;;;;;;5029478;28;20468;-83
2023/10/18 10:50:29;;;;;;;2.03;1.90;;;13.10;99.90;;;;;;5033126;28;20447;-85
2023/10/18 10:52:55;;;;;;;1.25;1.15;;;;;;;;;;5031679;28;20217;-86
2023/10/18 10:55:22;;;;;;;1.90;1.80;;;13.40;99.90;;;;;;5053316;28;20332;-85
2023/10/18 10:57:49;;;;;;;2.93;2.37;;;13.10;99.90;;;;;;5033188;28;20463;-85
2023/10/18 11:00:22;;;;;;;0.50;0.40;;;13.30;99.90;;;;;;5038954;28;20482;-86
2023/10/18 11:02:54;;;;;;;1.03;0.87;;;13.30;99.90;;;;;;5049923;28;20216;-85
2023/10/18 11:05:24;;;;;;;1.40;0.93;;;15.70;99.90;;;;;;5035577;28;20697;-85
2023/10/18 11:07:53;;;;;;;0.63;0.63;;;13.80;99.90;;;;;;5034259;28;20459;-86
2023/10/18 11:10:18;;;;;;;1.13;0.70;;;13.80;99.90;;;;;;5044629;28;20444;-85
2023/10/18 11:12:47;;;;;;;0.50;0.47;;;13.70;99.90;;;;;;5031461;28;20490;-87
2023/10/18 11:15:16;;;;;;;2.07;1.97;;;13.80;99.90;;;;;;5047602;28;20452;-87
2023/10/18 11:17:44;;;;;;;1.40;1.30;;;14.00;99.90;;;;;;5040833;28;20453;-82
2023/10/18 11:20:20;;;;;;;1.00;1.00;;;14.00;99.90;;;;;;5040190;28;20193;-84
2023/10/18 11:22:47;;;;;;;1.53;0.67;;;14.20;99.90;;;;;;5036487;28;20435;-84
2023/10/18 11:25:22;;;;;;;0.67;0.67;;;14.40;99.90;;;;;;5027838;28;20444;-86
2023/10/18 11:27:48;;;;;;;0.77;0.77;;;14.70;99.90;;;;;;5048476;28;20876;-86
2023/10/18 11:30:16;;;;;;;0.87;0.50;;;15.00;99.90;;;;;;5031544;28;20441;-84
2023/10/18 11:32:49;;;;;;;0.83;0.83;;;15.30;99.90;;;;;;5030400;28;20538;-84
2023/10/18 11:35:25;;;;;;;0.80;0.80;;;15.70;99.90;;;;;;5037129;28;20448;-84
2023/10/18 11:37:51;;;;;;;1.30;1.27;;;15.70;99.90;;;;;;5053350;28;20577;-84
2023/10/18 11:40:29;;;;;;;1.77;1.63;;;;;;;;;;5038767;28;20441;-84
2023/10/18 11:43:05;;;;;;;3.03;2.83;;;15.70;99.90;;;;;;5039446;28;20468;-84
2023/10/18 11:45:32;;;;;;;0.90;0.90;;;;;;;;;;5033474;28;20447;-84
2023/10/18 11:48:02;;;;;;;0.83;0.70;;;15.70;99.90;;;;;;5049251;28;20505;-86
2023/10/18 11:50:40;;;;;;;1.00;0.90;;;15.50;99.90;;;;;;5032485;28;20440;-84
2023/10/18 11:53:12;;;;;;;2.30;1.40;;;15.20;99.90;;;;;;5049824;28;20568;-84
2023/10/18 11:55:55;;;;;;;0.47;0.40;;;14.70;99.90;;;;;;5039942;28;20492;-85
2023/10/18 11:58:26;;;;;;;0.50;0.40;;;14.70;99.90;;;;;;5039424;28;20949;-86
2023/10/18 12:01:01;;;;;;;1.87;1.70;;;14.60;99.90;;;;;;5036244;28;20428;-84
2023/10/18 12:03:33;;;;;;;0.73;0.60;;;14.70;99.90;;;;;;5035964;28;20438;-83
2023/10/18 12:06:00;;;;;;;7.50;2.30;;;14.60;99.90;;;;;;5030776;28;20837;-85
2023/10/18 12:08:30;;;;;;;0.60;0.57;;;14.70;99.90;;;;;;5028832;28;20837;-83
2023/10/18 12:10:57;;;;;;;1.33;1.30;;;14.80;99.90;;;;;;5046029;28;20996;-84
2023/10/18 12:13:24;;;;;;;0.40;0.30;;;14.70;99.90;;;;;;5042906;28;20457;-83
2023/10/18 12:15:49;;;;;;;0.40;0.30;;;14.70;99.90;;;;;;5037334;28;20444;-84
2023/10/18 12:18:16;;;;;;;1.07;0.97;;;;;;;;;;5036881;28;20458;-83
2023/10/18 12:20:45;;;;;;;0.50;0.50;;;14.40;99.90;;;;;;5032668;28;20189;-85
2023/10/18 12:23:21;;;;;;;1.47;1.30;;;14.30;99.90;;;;;;5033965;28;20448;-83
2023/10/18 12:25:47;;;;;;;0.60;0.57;;;14.40;99.90;;;;;;5037501;28;21273;-84
2023/10/18 12:28:17;;;;;;;1.33;1.10;;;14.40;99.90;;;;;;5030588;28;20461;-85
2023/10/18 12:30:51;;;;;;;0.93;0.93;;;14.40;99.90;;;;;;5049832;28;20446;-85
2023/10/18 12:33:33;;;;;;;0.90;0.60;;;14.40;99.90;;;;;;5039715;28;20464;-84
2023/10/18 12:36:00;;;;;;;0.70;0.70;;;14.50;99.90;;;;;;5034334;28;20472;-84
2023/10/18 12:38:32;;;;;;;0.60;0.60;;;14.50;99.90;;;;;;5037245;28;20977;-81
2023/10/18 12:41:07;;;;;;;0.60;0.60;;;14.40;99.90;;;;;;5034478;28;20456;-84
2023/10/18 12:43:38;;;;;;;0.40;0.30;;;14.60;99.90;;;;;;5025979;28;20459;-82
2023/10/18 12:46:04;;;;;;;0.40;0.30;;;14.70;99.90;;;;;;5031167;28;20486;-86
2023/10/18 12:48:31;;;;;;;0.90;0.90;;;;;;;;;;5032405;28;20526;-84
2023/10/18 12:50:56;;;;;;;0.87;0.50;;;14.80;99.90;;;;;;5036740;28;20798;-86
2023/10/18 12:56:15;;;;;;;0.53;0.40;;;15.10;99.90;;;;;;5038840;28;20181;-85
2023/10/18 12:58:47;;;;;;;1.90;1.47;;;15.30;99.90;;;;;;5037813;28;20515;-84
2023/10/18 13:01:14;;;;;;;0.83;0.83;;;;;;;;;;5030023;28;20440;-84
2023/10/18 13:03:56;;;;;;;0.40;0.30;;;15.70;99.90;;;;;;5044490;28;20848;-83
2023/10/18 13:06:27;;;;;;;0.50;0.40;;;15.70;99.90;;;;;;5026617;28;20444;-85
2023/10/18 13:08:56;;;;;;;0.70;0.70;;;15.80;99.90;;;;;;5033763;28;20486;-84
2023/10/18 13:14:31;;;;;;;0.60;0.40;;;15.80;99.90;;;;;;4994266;28;20449;-85
2023/10/18 13:16:58;;;;;;;0.40;0.37;;;15.80;99.90;;;;;;5042334;28;20463;-85
2023/10/18 13:19:27;;;;;;;0.40;0.30;;;15.70;99.90;;;;;;5038046;28;20425;-85
2023/10/18 13:21:53;;;;;;;0.40;0.30;;;;;;;;;;5033913;28;20448;-87
2023/10/18 13:24:28;;;;;;;1.07;0.97;;;;;;;;;;5035903;28;20509;-83
2023/10/18 13:26:59;;;;;;;0.50;0.30;;;15.70;99.90;;;;;;5033123;28;20497;-85
2023/10/18 13:31:53;;;;;;;1.83;1.73;;;16.00;99.90;;;;;;5053431;28;20483;-82
2023/10/18 13:34:19;;;;;;;0.40;0.40;;;16.10;99.90;;;;;;5044774;28;20500;-84
2023/10/18 13:36:45;;;;;;;1.23;1.07;;;16.50;99.90;;;;;;5037509;28;20471;-85
2023/10/18 13:39:11;;;;;;;0.40;0.30;;;16.40;99.90;;;;;;5035426;28;20196;-80
2023/10/18 13:41:39;;;;;;;0.40;0.20;;;16.40;99.90;;;;;;5063361;28;20445;-84
2023/10/18 13:44:04;;;;;;;0.40;0.30;;;16.40;99.90;;;;;;5032165;28;20428;-85
2023/10/18 13:46:30;;;;;;;1.93;1.07;;;16.20;99.90;;;;;;5052117;28;20889;-83
2023/10/18 13:48:56;;;;;;;0.40;0.30;;;16.20;99.90;;;;;;5051700;28;20201;-85
2023/10/18 13:51:22;;;;;;;0.90;0.63;;;;;;;;;;5036054;28;20436;-85
2023/10/18 13:53:48;;;;;;;2.10;1.50;;;;;;;;;;5052332;28;20214;-88
2023/10/18 13:56:15;;;;;;;0.47;0.33;;;;;;;;;;5037085;28;21023;-88
2023/10/18 13:58:43;;;;;;;0.40;0.20;;;15.90;99.90;;;;;;5037505;28;20965;-83
2023/10/18 14:01:18;;;;;;;0.40;0.20;;;15.80;99.90;;;;;;5023253;28;21541;-82
2023/10/18 14:03:47;;;;;;;0.40;0.30;;;15.90;99.90;;;;;;5026874;28;20944;-86
2023/10/18 14:06:14;;;;;;;0.50;0.50;;;15.80;99.90;;;;;;5025952;28;20831;-84